sensor_id;sensor_type;location;lat;lon;timestamp;P1;durP1;ratioP1;P2;durP2;ratioP2
31594;SDS011;18200;48.726;8.892;2022-11-18T00:03:15;3.40;;;0.95;;
31594;SDS011;18200;48.726;8.892;2022-11-18T00:07:16;1.50;;;0.90;;
31594;SDS011;18200;48.726;8.892;2022-11-18T00:11:17;4.32;;;1.30;;
31594;SDS011;18200;48.726;8.892;2022-11-18T00:15:38;2.33;;;0.93;;
31594;SDS011;18200;48.726;8.892;2022-11-18T00:19:38;1.88;;;0.90;;
31594;SDS011;18200;48.726;8.892;2022-11-18T00:23:39;3.75;;;1.83;;
31594;SDS011;18200;48.726;8.892;2022-11-18T00:27:40;3.65;;;1.05;;
31594;SDS011;18200;48.726;8.892;2022-11-18T00:31:40;1.65;;;1.20;;
31594;SDS011;18200;48.726;8.892;2022-11-18T00:35:41;2.65;;;1.42;;
31594;SDS011;18200;48.726;8.892;2022-11-18T00:39:41;3.45;;;1.00;;
31594;SDS011;18200;48.726;8.892;2022-11-18T00:43:41;1.60;;;1.10;;
31594;SDS011;18200;48.726;8.892;2022-11-18T00:47:42;0.85;;;0.82;;
31594;SDS011;18200;48.726;8.892;2022-11-18T00:51:42;1.45;;;0.70;;
31594;SDS011;18200;48.726;8.892;2022-11-18T00:55:43;1.38;;;0.73;;
31594;SDS011;18200;48.726;8.892;2022-11-18T00:59:43;1.80;;;0.85;;
31594;SDS011;18200;48.726;8.892;2022-11-18T01:03:44;0.88;;;0.60;;
31594;SDS011;18200;48.726;8.892;2022-11-18T01:07:44;0.50;;;0.50;;
31594;SDS011;18200;48.726;8.892;2022-11-18T01:11:45;0.50;;;0.50;;
31594;SDS011;18200;48.726;8.892;2022-11-18T01:16:03;0.82;;;0.52;;
31594;SDS011;18200;48.726;8.892;2022-11-18T01:20:04;0.75;;;0.50;;
31594;SDS011;18200;48.726;8.892;2022-11-18T01:24:05;1.17;;;0.30;;
31594;SDS011;18200;48.726;8.892;2022-11-18T01:28:05;0.80;;;0.50;;
31594;SDS011;18200;48.726;8.892;2022-11-18T01:32:06;2.05;;;0.50;;
31594;SDS011;18200;48.726;8.892;2022-11-18T01:36:20;0.75;;;0.35;;
31594;SDS011;18200;48.726;8.892;2022-11-18T01:40:22;0.73;;;0.40;;
31594;SDS011;18200;48.726;8.892;2022-11-18T01:45:01;1.38;;;0.50;;
31594;SDS011;18200;48.726;8.892;2022-11-18T01:49:07;1.85;;;0.40;;
31594;SDS011;18200;48.726;8.892;2022-11-18T01:53:14;0.85;;;0.50;;
31594;SDS011;18200;48.726;8.892;2022-11-18T01:57:20;1.08;;;0.43;;
31594;SDS011;18200;48.726;8.892;2022-11-18T02:01:22;0.50;;;0.30;;
31594;SDS011;18200;48.726;8.892;2022-11-18T02:05:23;0.50;;;0.40;;
31594;SDS011;18200;48.726;8.892;2022-11-18T02:09:25;1.95;;;0.50;;
31594;SDS011;18200;48.726;8.892;2022-11-18T02:13:25;0.60;;;0.50;;
31594;SDS011;18200;48.726;8.892;2022-11-18T02:17:35;1.30;;;0.60;;
31594;SDS011;18200;48.726;8.892;2022-11-18T02:30:06;0.47;;;0.40;;
31594;SDS011;18200;48.726;8.892;2022-11-18T02:38:28;0.50;;;0.50;;
31594;SDS011;18200;48.726;8.892;2022-11-18T02:42:31;2.88;;;1.13;;
31594;SDS011;18200;48.726;8.892;2022-11-18T02:46:36;1.23;;;0.50;;
31594;SDS011;18200;48.726;8.892;2022-11-18T02:50:40;1.45;;;0.30;;
31594;SDS011;18200;48.726;8.892;2022-11-18T02:58:45;2.15;;;0.30;;
31594;SDS011;18200;48.726;8.892;2022-11-18T03:02:46;1.85;;;0.30;;
31594;SDS011;18200;48.726;8.892;2022-11-18T03:11:23;1.95;;;0.30;;
31594;SDS011;18200;48.726;8.892;2022-11-18T03:19:46;3.00;;;0.60;;
31594;SDS011;18200;48.726;8.892;2022-11-18T03:32:26;2.92;;;0.60;;
31594;SDS011;18200;48.726;8.892;2022-11-18T03:36:31;1.30;;;0.50;;
31594;SDS011;18200;48.726;8.892;2022-11-18T03:40:36;0.52;;;0.40;;
31594;SDS011;18200;48.726;8.892;2022-11-18T03:44:40;1.02;;;0.50;;
31594;SDS011;18200;48.726;8.892;2022-11-18T03:48:53;0.98;;;0.63;;
31594;SDS011;18200;48.726;8.892;2022-11-18T03:52:55;0.70;;;0.43;;
31594;SDS011;18200;48.726;8.892;2022-11-18T03:57:14;0.90;;;0.50;;
31594;SDS011;18200;48.726;8.892;2022-11-18T04:01:39;0.75;;;0.50;;
31594;SDS011;18200;48.726;8.892;2022-11-18T04:09:48;0.30;;;0.20;;
31594;SDS011;18200;48.726;8.892;2022-11-18T04:13:54;0.70;;;0.40;;
31594;SDS011;18200;48.726;8.892;2022-11-18T04:17:55;0.77;;;0.70;;
31594;SDS011;18200;48.726;8.892;2022-11-18T04:21:55;0.20;;;0.20;;
31594;SDS011;18200;48.726;8.892;2022-11-18T04:25:55;3.88;;;0.40;;
31594;SDS011;18200;48.726;8.892;2022-11-18T04:29:56;0.20;;;0.20;;
31594;SDS011;18200;48.726;8.892;2022-11-18T04:33:56;0.73;;;0.40;;
31594;SDS011;18200;48.726;8.892;2022-11-18T04:37:56;1.13;;;0.80;;
31594;SDS011;18200;48.726;8.892;2022-11-18T04:41:57;0.88;;;0.73;;
31594;SDS011;18200;48.726;8.892;2022-11-18T04:45:57;0.40;;;0.10;;
31594;SDS011;18200;48.726;8.892;2022-11-18T04:49:58;28.80;;;23.98;;
31594;SDS011;18200;48.726;8.892;2022-11-18T04:53:58;1.77;;;1.60;;
31594;SDS011;18200;48.726;8.892;2022-11-18T04:57:58;30.88;;;27.30;;
31594;SDS011;18200;48.726;8.892;2022-11-18T05:01:59;14.95;;;10.73;;
31594;SDS011;18200;48.726;8.892;2022-11-18T05:06:00;54.10;;;28.60;;
31594;SDS011;18200;48.726;8.892;2022-11-18T05:10:01;16.02;;;7.53;;
31594;SDS011;18200;48.726;8.892;2022-11-18T05:14:01;1.63;;;0.90;;
31594;SDS011;18200;48.726;8.892;2022-11-18T05:18:01;0.85;;;0.63;;
31594;SDS011;18200;48.726;8.892;2022-11-18T05:22:02;1.50;;;1.40;;
31594;SDS011;18200;48.726;8.892;2022-11-18T05:26:06;1.85;;;0.75;;
31594;SDS011;18200;48.726;8.892;2022-11-18T05:30:08;4.03;;;3.00;;
31594;SDS011;18200;48.726;8.892;2022-11-18T05:34:09;1.13;;;0.70;;
31594;SDS011;18200;48.726;8.892;2022-11-18T05:38:09;1.30;;;0.40;;
31594;SDS011;18200;48.726;8.892;2022-11-18T05:42:09;1.75;;;0.52;;
31594;SDS011;18200;48.726;8.892;2022-11-18T05:46:28;3.08;;;0.70;;
31594;SDS011;18200;48.726;8.892;2022-11-18T05:50:30;2.47;;;1.25;;
31594;SDS011;18200;48.726;8.892;2022-11-18T05:54:32;2.08;;;1.02;;
31594;SDS011;18200;48.726;8.892;2022-11-18T05:58:33;0.57;;;0.40;;
31594;SDS011;18200;48.726;8.892;2022-11-18T06:02:33;1.10;;;0.70;;
31594;SDS011;18200;48.726;8.892;2022-11-18T06:06:33;1.48;;;0.70;;
31594;SDS011;18200;48.726;8.892;2022-11-18T06:10:34;0.88;;;0.50;;
31594;SDS011;18200;48.726;8.892;2022-11-18T06:14:39;3.05;;;1.17;;
31594;SDS011;18200;48.726;8.892;2022-11-18T06:19:01;1.13;;;0.55;;
31594;SDS011;18200;48.726;8.892;2022-11-18T06:23:02;2.63;;;0.60;;
31594;SDS011;18200;48.726;8.892;2022-11-18T06:27:03;0.85;;;0.68;;
31594;SDS011;18200;48.726;8.892;2022-11-18T06:31:04;58.25;;;23.55;;
31594;SDS011;18200;48.726;8.892;2022-11-18T06:35:05;39.83;;;15.30;;
31594;SDS011;18200;48.726;8.892;2022-11-18T06:39:06;10.77;;;1.95;;
31594;SDS011;18200;48.726;8.892;2022-11-18T06:43:07;1.63;;;0.80;;
31594;SDS011;18200;48.726;8.892;2022-11-18T06:47:27;1.75;;;0.63;;
31594;SDS011;18200;48.726;8.892;2022-11-18T06:51:27;1.38;;;0.77;;
31594;SDS011;18200;48.726;8.892;2022-11-18T06:55:28;2.03;;;0.80;;
31594;SDS011;18200;48.726;8.892;2022-11-18T06:59:29;3.15;;;0.77;;
31594;SDS011;18200;48.726;8.892;2022-11-18T07:03:29;4.30;;;0.82;;
31594;SDS011;18200;48.726;8.892;2022-11-18T07:07:29;1.60;;;1.20;;
31594;SDS011;18200;48.726;8.892;2022-11-18T07:11:30;3.38;;;1.73;;
31594;SDS011;18200;48.726;8.892;2022-11-18T07:15:32;1.27;;;0.65;;
31594;SDS011;18200;48.726;8.892;2022-11-18T07:19:33;1.52;;;0.93;;
31594;SDS011;18200;48.726;8.892;2022-11-18T07:23:33;3.13;;;0.60;;
31594;SDS011;18200;48.726;8.892;2022-11-18T07:27:34;0.80;;;0.70;;
31594;SDS011;18200;48.726;8.892;2022-11-18T07:31:35;0.68;;;0.50;;
31594;SDS011;18200;48.726;8.892;2022-11-18T07:35:38;0.73;;;0.57;;
31594;SDS011;18200;48.726;8.892;2022-11-18T07:39:39;2.15;;;0.50;;
31594;SDS011;18200;48.726;8.892;2022-11-18T07:43:39;6.28;;;1.02;;
31594;SDS011;18200;48.726;8.892;2022-11-18T07:47:41;2.33;;;1.00;;
31594;SDS011;18200;48.726;8.892;2022-11-18T07:51:41;4.82;;;0.75;;
31594;SDS011;18200;48.726;8.892;2022-11-18T07:55:41;1.30;;;0.70;;
31594;SDS011;18200;48.726;8.892;2022-11-18T07:59:42;3.25;;;2.25;;
31594;SDS011;18200;48.726;8.892;2022-11-18T08:03:43;3.38;;;1.85;;
31594;SDS011;18200;48.726;8.892;2022-11-18T08:07:43;1.23;;;0.82;;
31594;SDS011;18200;48.726;8.892;2022-11-18T08:11:44;2.10;;;1.10;;
31594;SDS011;18200;48.726;8.892;2022-11-18T08:15:44;3.15;;;1.70;;
31594;SDS011;18200;48.726;8.892;2022-11-18T08:19:45;4.63;;;2.95;;
31594;SDS011;18200;48.726;8.892;2022-11-18T08:23:49;5.93;;;2.15;;
31594;SDS011;18200;48.726;8.892;2022-11-18T08:27:50;4.22;;;2.38;;
31594;SDS011;18200;48.726;8.892;2022-11-18T08:31:51;2.47;;;1.83;;
31594;SDS011;18200;48.726;8.892;2022-11-18T08:35:51;2.88;;;1.27;;
31594;SDS011;18200;48.726;8.892;2022-11-18T08:39:52;3.63;;;1.30;;
31594;SDS011;18200;48.726;8.892;2022-11-18T08:43:52;1.92;;;1.23;;
31594;SDS011;18200;48.726;8.892;2022-11-18T08:47:52;2.42;;;1.38;;
31594;SDS011;18200;48.726;8.892;2022-11-18T08:51:53;2.58;;;1.00;;
31594;SDS011;18200;48.726;8.892;2022-11-18T08:55:54;2.13;;;1.25;;
31594;SDS011;18200;48.726;8.892;2022-11-18T09:04:16;0.90;;;0.60;;
31594;SDS011;18200;48.726;8.892;2022-11-18T09:08:17;4.10;;;1.02;;
31594;SDS011;18200;48.726;8.892;2022-11-18T09:12:18;1.92;;;0.63;;
31594;SDS011;18200;48.726;8.892;2022-11-18T09:16:19;1.15;;;0.60;;
31594;SDS011;18200;48.726;8.892;2022-11-18T09:20:22;2.78;;;0.57;;
31594;SDS011;18200;48.726;8.892;2022-11-18T09:24:23;1.15;;;0.80;;
31594;SDS011;18200;48.726;8.892;2022-11-18T09:28:23;3.08;;;2.13;;
31594;SDS011;18200;48.726;8.892;2022-11-18T09:32:24;2.88;;;1.30;;
31594;SDS011;18200;48.726;8.892;2022-11-18T09:36:25;1.95;;;0.80;;
31594;SDS011;18200;48.726;8.892;2022-11-18T09:40:26;3.22;;;1.10;;
31594;SDS011;18200;48.726;8.892;2022-11-18T09:44:31;1.27;;;0.75;;
31594;SDS011;18200;48.726;8.892;2022-11-18T09:48:38;1.67;;;0.98;;
31594;SDS011;18200;48.726;8.892;2022-11-18T09:53:05;3.38;;;1.10;;
31594;SDS011;18200;48.726;8.892;2022-11-18T10:01:47;2.38;;;1.33;;
31594;SDS011;18200;48.726;8.892;2022-11-18T10:06:04;1.80;;;1.33;;
31594;SDS011;18200;48.726;8.892;2022-11-18T10:10:18;1.88;;;1.30;;
31594;SDS011;18200;48.726;8.892;2022-11-18T10:14:32;4.05;;;1.98;;
31594;SDS011;18200;48.726;8.892;2022-11-18T10:27:41;2.53;;;1.20;;
31594;SDS011;18200;48.726;8.892;2022-11-18T10:40:14;2.47;;;0.70;;
31594;SDS011;18200;48.726;8.892;2022-11-18T10:44:29;2.47;;;1.08;;
31594;SDS011;18200;48.726;8.892;2022-11-18T10:48:32;5.30;;;1.48;;
31594;SDS011;18200;48.726;8.892;2022-11-18T10:52:32;0.60;;;0.60;;
31594;SDS011;18200;48.726;8.892;2022-11-18T10:56:53;1.77;;;0.80;;
31594;SDS011;18200;48.726;8.892;2022-11-18T11:05:19;1.83;;;0.50;;
31594;SDS011;18200;48.726;8.892;2022-11-18T11:09:26;1.25;;;0.70;;
31594;SDS011;18200;48.726;8.892;2022-11-18T11:13:30;1.05;;;0.50;;
31594;SDS011;18200;48.726;8.892;2022-11-18T11:21:40;0.93;;;0.50;;
31594;SDS011;18200;48.726;8.892;2022-11-18T11:29:55;2.65;;;0.80;;
31594;SDS011;18200;48.726;8.892;2022-11-18T11:38:43;1.63;;;0.90;;
31594;SDS011;18200;48.726;8.892;2022-11-18T11:43:13;0.90;;;0.80;;
31594;SDS011;18200;48.726;8.892;2022-11-18T11:47:29;1.27;;;0.65;;
31594;SDS011;18200;48.726;8.892;2022-11-18T11:51:53;3.20;;;0.80;;
31594;SDS011;18200;48.726;8.892;2022-11-18T12:00:15;3.75;;;1.40;;
31594;SDS011;18200;48.726;8.892;2022-11-18T12:04:51;4.65;;;1.20;;
31594;SDS011;18200;48.726;8.892;2022-11-18T12:17:38;2.10;;;0.80;;
31594;SDS011;18200;48.726;8.892;2022-11-18T12:33:52;1.88;;;0.85;;
31594;SDS011;18200;48.726;8.892;2022-11-18T12:41:56;6.40;;;0.73;;
31594;SDS011;18200;48.726;8.892;2022-11-18T12:54:49;2.80;;;1.10;;
31594;SDS011;18200;48.726;8.892;2022-11-18T12:58:51;2.85;;;1.10;;
31594;SDS011;18200;48.726;8.892;2022-11-18T13:03:01;4.03;;;1.00;;
31594;SDS011;18200;48.726;8.892;2022-11-18T13:07:01;5.43;;;1.17;;
31594;SDS011;18200;48.726;8.892;2022-11-18T13:11:08;3.60;;;1.70;;
31594;SDS011;18200;48.726;8.892;2022-11-18T13:15:31;2.90;;;0.70;;
31594;SDS011;18200;48.726;8.892;2022-11-18T13:19:57;1.75;;;0.70;;
31594;SDS011;18200;48.726;8.892;2022-11-18T13:24:00;2.88;;;1.45;;
31594;SDS011;18200;48.726;8.892;2022-11-18T13:32:22;3.10;;;1.30;;
31594;SDS011;18200;48.726;8.892;2022-11-18T13:36:26;1.52;;;0.80;;
31594;SDS011;18200;48.726;8.892;2022-11-18T13:40:31;3.28;;;0.80;;
31594;SDS011;18200;48.726;8.892;2022-11-18T13:44:42;2.60;;;0.93;;
31594;SDS011;18200;48.726;8.892;2022-11-18T13:48:52;2.03;;;0.90;;
31594;SDS011;18200;48.726;8.892;2022-11-18T13:57:16;7.75;;;1.63;;
31594;SDS011;18200;48.726;8.892;2022-11-18T14:01:23;2.22;;;1.15;;
31594;SDS011;18200;48.726;8.892;2022-11-18T14:05:25;3.35;;;0.98;;
31594;SDS011;18200;48.726;8.892;2022-11-18T14:09:27;5.32;;;1.35;;
31594;SDS011;18200;48.726;8.892;2022-11-18T14:13:30;2.53;;;1.08;;
31594;SDS011;18200;48.726;8.892;2022-11-18T14:17:33;3.17;;;1.08;;
31594;SDS011;18200;48.726;8.892;2022-11-18T14:21:34;6.10;;;1.50;;
31594;SDS011;18200;48.726;8.892;2022-11-18T14:25:41;2.50;;;1.13;;
31594;SDS011;18200;48.726;8.892;2022-11-18T14:46:38;7.60;;;2.03;;
31594;SDS011;18200;48.726;8.892;2022-11-18T14:50:40;8.43;;;2.65;;
31594;SDS011;18200;48.726;8.892;2022-11-18T14:54:40;2.80;;;1.27;;
31594;SDS011;18200;48.726;8.892;2022-11-18T14:58:41;6.57;;;2.15;;
31594;SDS011;18200;48.726;8.892;2022-11-18T15:02:41;4.63;;;1.80;;
31594;SDS011;18200;48.726;8.892;2022-11-18T15:06:41;7.97;;;3.45;;
31594;SDS011;18200;48.726;8.892;2022-11-18T15:10:42;10.45;;;2.47;;
31594;SDS011;18200;48.726;8.892;2022-11-18T15:14:42;3.92;;;1.40;;
31594;SDS011;18200;48.726;8.892;2022-11-18T15:18:43;4.53;;;2.35;;
31594;SDS011;18200;48.726;8.892;2022-11-18T15:22:46;6.78;;;1.98;;
31594;SDS011;18200;48.726;8.892;2022-11-18T15:26:47;5.35;;;2.10;;
31594;SDS011;18200;48.726;8.892;2022-11-18T15:30:47;6.95;;;2.60;;
31594;SDS011;18200;48.726;8.892;2022-11-18T15:34:47;7.88;;;1.92;;
31594;SDS011;18200;48.726;8.892;2022-11-18T15:38:48;8.45;;;1.60;;
31594;SDS011;18200;48.726;8.892;2022-11-18T15:42:50;9.88;;;3.03;;
31594;SDS011;18200;48.726;8.892;2022-11-18T15:46:50;7.00;;;1.95;;
31594;SDS011;18200;48.726;8.892;2022-11-18T15:50:50;8.00;;;1.65;;
31594;SDS011;18200;48.726;8.892;2022-11-18T15:54:51;5.80;;;2.55;;
31594;SDS011;18200;48.726;8.892;2022-11-18T15:58:52;9.68;;;2.53;;
31594;SDS011;18200;48.726;8.892;2022-11-18T16:02:53;8.00;;;3.35;;
31594;SDS011;18200;48.726;8.892;2022-11-18T16:06:53;12.45;;;4.65;;
31594;SDS011;18200;48.726;8.892;2022-11-18T16:10:54;18.95;;;6.43;;
31594;SDS011;18200;48.726;8.892;2022-11-18T16:15:14;12.45;;;4.13;;
31594;SDS011;18200;48.726;8.892;2022-11-18T16:19:34;10.18;;;4.10;;
31594;SDS011;18200;48.726;8.892;2022-11-18T16:23:34;7.85;;;3.50;;
31594;SDS011;18200;48.726;8.892;2022-11-18T16:27:35;7.78;;;4.45;;
31594;SDS011;18200;48.726;8.892;2022-11-18T16:31:35;9.77;;;3.75;;
31594;SDS011;18200;48.726;8.892;2022-11-18T16:35:44;7.47;;;3.03;;
31594;SDS011;18200;48.726;8.892;2022-11-18T16:39:45;5.80;;;3.35;;
31594;SDS011;18200;48.726;8.892;2022-11-18T16:43:47;8.88;;;4.00;;
31594;SDS011;18200;48.726;8.892;2022-11-18T16:47:48;14.00;;;4.47;;
31594;SDS011;18200;48.726;8.892;2022-11-18T16:51:49;8.93;;;6.00;;
31594;SDS011;18200;48.726;8.892;2022-11-18T16:55:51;11.00;;;5.50;;
31594;SDS011;18200;48.726;8.892;2022-11-18T16:59:51;9.50;;;5.60;;
31594;SDS011;18200;48.726;8.892;2022-11-18T17:03:52;11.05;;;4.35;;
31594;SDS011;18200;48.726;8.892;2022-11-18T17:07:53;9.43;;;4.15;;
31594;SDS011;18200;48.726;8.892;2022-11-18T17:11:54;12.23;;;5.13;;
31594;SDS011;18200;48.726;8.892;2022-11-18T17:15:55;26.33;;;12.40;;
31594;SDS011;18200;48.726;8.892;2022-11-18T17:19:55;39.08;;;16.23;;
31594;SDS011;18200;48.726;8.892;2022-11-18T17:23:56;41.65;;;20.67;;
31594;SDS011;18200;48.726;8.892;2022-11-18T17:27:56;30.75;;;17.52;;
31594;SDS011;18200;48.726;8.892;2022-11-18T17:31:57;23.30;;;10.80;;
31594;SDS011;18200;48.726;8.892;2022-11-18T17:35:58;17.65;;;9.55;;
31594;SDS011;18200;48.726;8.892;2022-11-18T17:44:02;28.25;;;15.05;;
31594;SDS011;18200;48.726;8.892;2022-11-18T17:48:04;19.92;;;10.60;;
31594;SDS011;18200;48.726;8.892;2022-11-18T17:52:05;23.05;;;14.25;;
31594;SDS011;18200;48.726;8.892;2022-11-18T17:56:06;27.90;;;17.08;;
31594;SDS011;18200;48.726;8.892;2022-11-18T18:00:07;17.25;;;9.55;;
31594;SDS011;18200;48.726;8.892;2022-11-18T18:04:08;9.45;;;5.07;;
31594;SDS011;18200;48.726;8.892;2022-11-18T18:08:09;9.90;;;4.30;;
31594;SDS011;18200;48.726;8.892;2022-11-18T18:12:09;21.02;;;12.23;;
31594;SDS011;18200;48.726;8.892;2022-11-18T18:16:29;19.63;;;10.15;;
31594;SDS011;18200;48.726;8.892;2022-11-18T18:20:32;18.67;;;11.30;;
31594;SDS011;18200;48.726;8.892;2022-11-18T18:24:33;22.42;;;11.38;;
31594;SDS011;18200;48.726;8.892;2022-11-18T18:28:34;13.23;;;9.07;;
31594;SDS011;18200;48.726;8.892;2022-11-18T18:32:34;13.75;;;8.32;;
31594;SDS011;18200;48.726;8.892;2022-11-18T18:36:35;13.32;;;8.57;;
31594;SDS011;18200;48.726;8.892;2022-11-18T18:40:36;17.88;;;10.50;;
31594;SDS011;18200;48.726;8.892;2022-11-18T18:44:37;24.75;;;11.77;;
31594;SDS011;18200;48.726;8.892;2022-11-18T18:53:04;15.68;;;9.10;;
31594;SDS011;18200;48.726;8.892;2022-11-18T18:57:05;14.48;;;8.98;;
31594;SDS011;18200;48.726;8.892;2022-11-18T19:01:08;13.20;;;8.23;;
31594;SDS011;18200;48.726;8.892;2022-11-18T19:05:14;12.18;;;6.88;;
31594;SDS011;18200;48.726;8.892;2022-11-18T19:09:14;27.48;;;16.40;;
31594;SDS011;18200;48.726;8.892;2022-11-18T19:13:15;19.05;;;10.00;;
31594;SDS011;18200;48.726;8.892;2022-11-18T19:17:15;12.70;;;8.45;;
31594;SDS011;18200;48.726;8.892;2022-11-18T19:21:16;6.30;;;4.22;;
31594;SDS011;18200;48.726;8.892;2022-11-18T19:25:17;5.00;;;2.60;;
31594;SDS011;18200;48.726;8.892;2022-11-18T19:29:17;6.20;;;3.40;;
31594;SDS011;18200;48.726;8.892;2022-11-18T19:33:18;7.10;;;5.47;;
31594;SDS011;18200;48.726;8.892;2022-11-18T19:37:18;5.70;;;3.90;;
31594;SDS011;18200;48.726;8.892;2022-11-18T19:41:19;17.80;;;9.40;;
31594;SDS011;18200;48.726;8.892;2022-11-18T19:45:19;21.55;;;10.65;;
31594;SDS011;18200;48.726;8.892;2022-11-18T19:49:20;13.38;;;7.82;;
31594;SDS011;18200;48.726;8.892;2022-11-18T19:53:21;19.65;;;11.98;;
31594;SDS011;18200;48.726;8.892;2022-11-18T19:57:34;10.52;;;7.72;;
31594;SDS011;18200;48.726;8.892;2022-11-18T20:01:34;16.15;;;12.63;;
31594;SDS011;18200;48.726;8.892;2022-11-18T20:05:34;16.35;;;9.23;;
31594;SDS011;18200;48.726;8.892;2022-11-18T20:09:53;9.02;;;5.10;;
31594;SDS011;18200;48.726;8.892;2022-11-18T20:13:53;21.33;;;8.73;;
31594;SDS011;18200;48.726;8.892;2022-11-18T20:17:54;8.00;;;4.90;;
31594;SDS011;18200;48.726;8.892;2022-11-18T20:21:54;29.52;;;7.50;;
31594;SDS011;18200;48.726;8.892;2022-11-18T20:25:54;18.13;;;10.40;;
31594;SDS011;18200;48.726;8.892;2022-11-18T20:29:55;8.60;;;4.20;;
31594;SDS011;18200;48.726;8.892;2022-11-18T20:33:55;12.27;;;4.53;;
31594;SDS011;18200;48.726;8.892;2022-11-18T20:37:56;6.53;;;3.55;;
31594;SDS011;18200;48.726;8.892;2022-11-18T20:41:57;6.65;;;3.42;;
31594;SDS011;18200;48.726;8.892;2022-11-18T20:46:16;11.10;;;5.65;;
31594;SDS011;18200;48.726;8.892;2022-11-18T20:50:18;18.90;;;8.60;;
31594;SDS011;18200;48.726;8.892;2022-11-18T20:54:18;7.40;;;3.65;;
31594;SDS011;18200;48.726;8.892;2022-11-18T20:58:18;7.03;;;3.67;;
31594;SDS011;18200;48.726;8.892;2022-11-18T21:02:19;5.15;;;3.08;;
31594;SDS011;18200;48.726;8.892;2022-11-18T21:06:20;9.23;;;4.43;;
31594;SDS011;18200;48.726;8.892;2022-11-18T21:10:21;13.70;;;6.75;;
31594;SDS011;18200;48.726;8.892;2022-11-18T21:14:22;22.60;;;12.07;;
31594;SDS011;18200;48.726;8.892;2022-11-18T21:18:23;7.00;;;4.95;;
31594;SDS011;18200;48.726;8.892;2022-11-18T21:22:28;8.95;;;4.53;;
31594;SDS011;18200;48.726;8.892;2022-11-18T21:26:29;11.05;;;4.85;;
31594;SDS011;18200;48.726;8.892;2022-11-18T21:30:31;8.30;;;4.55;;
31594;SDS011;18200;48.726;8.892;2022-11-18T21:34:31;5.45;;;3.38;;
31594;SDS011;18200;48.726;8.892;2022-11-18T21:38:32;7.93;;;3.70;;
31594;SDS011;18200;48.726;8.892;2022-11-18T21:42:32;6.60;;;4.32;;
31594;SDS011;18200;48.726;8.892;2022-11-18T21:46:33;8.25;;;5.13;;
31594;SDS011;18200;48.726;8.892;2022-11-18T21:50:34;11.80;;;5.63;;
31594;SDS011;18200;48.726;8.892;2022-11-18T21:54:37;9.48;;;5.20;;
31594;SDS011;18200;48.726;8.892;2022-11-18T21:58:37;11.13;;;5.20;;
31594;SDS011;18200;48.726;8.892;2022-11-18T22:02:38;9.75;;;5.32;;
31594;SDS011;18200;48.726;8.892;2022-11-18T22:06:38;11.95;;;6.45;;
31594;SDS011;18200;48.726;8.892;2022-11-18T22:10:43;7.68;;;5.38;;
31594;SDS011;18200;48.726;8.892;2022-11-18T22:14:44;15.88;;;7.70;;
31594;SDS011;18200;48.726;8.892;2022-11-18T22:18:45;14.05;;;7.57;;
31594;SDS011;18200;48.726;8.892;2022-11-18T22:22:47;17.00;;;7.28;;
31594;SDS011;18200;48.726;8.892;2022-11-18T22:26:47;19.77;;;8.85;;
31594;SDS011;18200;48.726;8.892;2022-11-18T22:30:47;24.80;;;10.45;;
31594;SDS011;18200;48.726;8.892;2022-11-18T22:34:48;16.25;;;9.20;;
31594;SDS011;18200;48.726;8.892;2022-11-18T22:38:48;10.38;;;6.65;;
31594;SDS011;18200;48.726;8.892;2022-11-18T22:42:49;10.25;;;4.82;;
31594;SDS011;18200;48.726;8.892;2022-11-18T22:46:50;8.07;;;4.78;;
31594;SDS011;18200;48.726;8.892;2022-11-18T22:51:09;9.00;;;5.40;;
31594;SDS011;18200;48.726;8.892;2022-11-18T22:55:10;7.55;;;4.53;;
31594;SDS011;18200;48.726;8.892;2022-11-18T22:59:10;7.18;;;4.80;;
31594;SDS011;18200;48.726;8.892;2022-11-18T23:03:11;6.63;;;4.50;;
31594;SDS011;18200;48.726;8.892;2022-11-18T23:07:11;6.82;;;4.57;;
31594;SDS011;18200;48.726;8.892;2022-11-18T23:11:13;11.43;;;5.53;;
31594;SDS011;18200;48.726;8.892;2022-11-18T23:15:38;11.40;;;6.13;;
31594;SDS011;18200;48.726;8.892;2022-11-18T23:19:39;10.15;;;4.97;;
31594;SDS011;18200;48.726;8.892;2022-11-18T23:23:42;11.45;;;4.28;;
31594;SDS011;18200;48.726;8.892;2022-11-18T23:27:43;8.60;;;4.32;;
31594;SDS011;18200;48.726;8.892;2022-11-18T23:31:43;8.32;;;4.30;;
31594;SDS011;18200;48.726;8.892;2022-11-18T23:35:50;10.20;;;5.45;;
31594;SDS011;18200;48.726;8.892;2022-11-18T23:39:51;11.48;;;6.53;;
31594;SDS011;18200;48.726;8.892;2022-11-18T23:43:51;8.93;;;5.00;;
31594;SDS011;18200;48.726;8.892;2022-11-18T23:47:53;11.18;;;6.18;;
31594;SDS011;18200;48.726;8.892;2022-11-18T23:51:53;10.55;;;6.13;;
31594;SDS011;18200;48.726;8.892;2022-11-18T23:55:53;9.15;;;4.60;;
31594;SDS011;18200;48.726;8.892;2022-11-18T23:59:54;11.02;;;5.35;;
